TimeMST,TemperatureF,Dew PointF,Humidity,Sea Level PressureIn,VisibilityMPH,Wind Direction,Wind SpeedMPH,Gust SpeedMPH,PrecipitationIn,Events,Conditions,WindDirDegrees,DateUTC
12:53 AM,12.9,3.0,65,30.19,10.0,Calm,Calm,-,N/A,,Clear,0,2013-02-19 07:53:00
1:53 AM,17.1,7.0,65,30.18,10.0,Calm,Calm,-,N/A,,Clear,0,2013-02-19 08:53:00
2:53 AM,10.0,1.9,70,30.17,10.0,Calm,Calm,-,N/A,,Clear,0,2013-02-19 09:53:00
3:53 AM,10.9,5.0,77,30.17,10.0,Calm,Calm,-,N/A,,Clear,0,2013-02-19 10:53:00
4:53 AM,10.0,3.9,76,30.18,10.0,Calm,Calm,-,N/A,,Clear,0,2013-02-19 11:53:00
5:53 AM,9.0,1.0,70,30.20,10.0,Calm,Calm,-,N/A,,Clear,0,2013-02-19 12:53:00
6:53 AM,10.9,3.9,73,30.22,10.0,East,6.9,-,N/A,,Clear,80,2013-02-19 13:53:00
7:53 AM,19.0,10.9,71,30.22,10.0,East,8.1,-,N/A,,Clear,80,2013-02-19 14:53:00
8:53 AM,32.0,16.0,52,30.17,10.0,East,18.4,23.0,N/A,,Clear,100,2013-02-19 15:53:00
9:53 AM,37.9,15.1,39,30.12,10.0,SE,19.6,26.5,N/A,,Clear,140,2013-02-19 16:53:00
11:53 AM,48.0,12.9,24,30.06,10.0,South,21.9,31.1,N/A,,Clear,170,2013-02-19 18:53:00
12:53 PM,52.0,12.9,21,29.98,10.0,South,21.9,33.4,N/A,,Clear,170,2013-02-19 19:53:00
1:53 PM,53.1,14.0,21,29.92,10.0,South,21.9,34.5,N/A,,Clear,170,2013-02-19 20:53:00
2:53 PM,53.1,16.0,23,29.91,10.0,South,23.0,32.2,N/A,,Clear,170,2013-02-19 21:53:00
3:53 PM,53.1,16.0,23,29.90,10.0,South,27.6,34.5,N/A,,Clear,170,2013-02-19 22:53:00
5:53 PM,48.9,16.0,27,29.92,10.0,SSE,18.4,-,N/A,,Clear,150,2013-02-20 00:53:00
6:53 PM,46.0,17.1,31,29.93,10.0,SE,20.7,29.9,N/A,,Clear,130,2013-02-20 01:53:00
7:53 PM,42.1,17.1,37,29.94,10.0,SE,17.3,-,N/A,,Clear,130,2013-02-20 02:53:00
8:53 PM,42.1,18.0,38,29.90,10.0,SSE,24.2,32.2,N/A,,Clear,150,2013-02-20 03:53:00
9:53 PM,39.0,19.0,45,29.88,10.0,SE,17.3,25.3,N/A,,Clear,140,2013-02-20 04:53:00
10:53 PM,37.9,18.0,45,29.88,10.0,SE,15.0,21.9,N/A,,Clear,140,2013-02-20 05:53:00
11:53 PM,36.0,17.1,46,29.86,10.0,SE,17.3,23.0,N/A,,Clear,140,2013-02-20 06:53:00